createdAt,value
2023-03-29T00:00:13.980Z,4.75
2023-03-29T00:03:02.599Z,3.55
2023-03-29T00:05:33.851Z,6.88
2023-03-29T00:08:04.775Z,7.93
2023-03-29T00:10:33.663Z,4.57
2023-03-29T00:13:01.908Z,5.20
2023-03-29T00:15:29.228Z,3.88
2023-03-29T00:17:57.529Z,6.28
2023-03-29T00:20:24.603Z,6.65
2023-03-29T00:22:51.941Z,3.40
2023-03-29T00:25:18.941Z,5.57
2023-03-29T00:27:46.969Z,3.35
2023-03-29T00:30:14.905Z,7.78
2023-03-29T00:32:42.931Z,4.72
2023-03-29T00:35:11.016Z,2.65
2023-03-29T00:37:38.346Z,2.83
2023-03-29T00:40:10.354Z,3.10
2023-03-29T00:42:38.224Z,4.57
2023-03-29T00:45:08.258Z,6.75
2023-03-29T00:48:03.449Z,4.45
2023-03-29T00:50:39.444Z,3.17
2023-03-29T00:53:15.031Z,2.90
2023-03-29T00:55:54.412Z,2.47
2023-03-29T00:58:28.444Z,3.20
2023-03-29T01:01:04.055Z,2.67
2023-03-29T01:03:41.376Z,2.72
2023-03-29T01:06:10.698Z,2.72
2023-03-29T01:08:45.395Z,3.17
2023-03-29T01:11:22.275Z,3.03
2023-03-29T01:13:58.572Z,2.80
2023-03-29T01:16:28.697Z,3.22
2023-03-29T01:19:00.423Z,2.60
2023-03-29T01:21:45.138Z,2.72
2023-03-29T01:24:33.345Z,2.40
2023-03-29T01:27:29.757Z,3.90
2023-03-29T01:30:02.092Z,4.57
2023-03-29T01:32:48.876Z,5.63
2023-03-29T01:35:22.749Z,3.13
2023-03-29T01:38:07.245Z,3.50
2023-03-29T01:40:34.823Z,2.70
2023-03-29T01:43:20.251Z,3.03
2023-03-29T01:45:50.378Z,7.53
2023-03-29T01:50:58.457Z,3.38
2023-03-29T01:53:35.945Z,3.08
2023-03-29T01:56:11.773Z,3.78
2023-03-29T01:58:44.824Z,4.40
2023-03-29T02:01:17.771Z,5.50
2023-03-29T02:03:50.859Z,6.32
2023-03-29T02:06:23.759Z,4.35
2023-03-29T02:08:52.512Z,4.43
2023-03-29T02:11:22.044Z,5.82
2023-03-29T02:13:49.104Z,5.90
2023-03-29T02:16:16.932Z,4.55
2023-03-29T02:18:46.991Z,4.40
2023-03-29T02:21:26.724Z,4.50
2023-03-29T02:23:56.817Z,4.25
2023-03-29T02:26:24.667Z,5.82
2023-03-29T02:28:53.115Z,4.22
2023-03-29T02:31:37.346Z,2.80
2023-03-29T02:34:28.289Z,3.05
2023-03-29T02:37:00.394Z,3.88
2023-03-29T02:39:32.173Z,4.22
2023-03-29T02:41:59.908Z,3.60
2023-03-29T02:44:30.376Z,3.10
2023-03-29T02:47:07.782Z,2.92
2023-03-29T02:49:34.879Z,3.20
2023-03-29T02:52:09.202Z,3.72
2023-03-29T02:54:42.968Z,2.90
2023-03-29T02:57:10.842Z,2.65
2023-03-29T02:59:44.048Z,2.95
2023-03-29T03:02:11.947Z,2.95
2023-03-29T03:04:39.767Z,5.90
2023-03-29T03:07:07.046Z,6.82
2023-03-29T03:09:35.489Z,6.22
2023-03-29T03:12:02.990Z,4.57
2023-03-29T03:14:30.416Z,3.80
2023-03-29T03:17:01.748Z,3.10
2023-03-29T03:19:30.611Z,5.03
2023-03-29T03:21:58.274Z,3.50
2023-03-29T03:24:25.296Z,3.65
2023-03-29T03:26:52.545Z,5.72
2023-03-29T03:29:19.687Z,5.68
2023-03-29T03:32:05.853Z,8.35
2023-03-29T03:34:44.835Z,7.90
2023-03-29T03:37:12.365Z,11.45
2023-03-29T03:39:39.904Z,8.60
2023-03-29T03:42:09.321Z,7.53
2023-03-29T03:44:41.928Z,5.47
2023-03-29T03:47:31.757Z,16.60
2023-03-29T03:50:13.776Z,21.60
2023-03-29T03:52:41.172Z,16.35
2023-03-29T03:55:09.488Z,17.77
2023-03-29T03:57:43.970Z,14.77
2023-03-29T04:00:19.400Z,38.80
2023-03-29T04:02:57.133Z,30.67
2023-03-29T04:05:24.643Z,17.00
2023-03-29T04:07:52.550Z,13.43
2023-03-29T04:10:39.906Z,6.22
2023-03-29T04:13:19.067Z,6.35
2023-03-29T04:16:21.513Z,6.60
2023-03-29T04:18:49.670Z,5.65
2023-03-29T04:21:18.781Z,5.32
2023-03-29T04:23:48.886Z,4.80
2023-03-29T04:26:17.736Z,4.13
2023-03-29T04:28:48.236Z,5.07
2023-03-29T04:31:23.442Z,5.75
2023-03-29T04:34:19.736Z,4.15
2023-03-29T04:36:50.339Z,4.72
2023-03-29T04:39:21.783Z,4.25
2023-03-29T04:41:54.331Z,4.32
2023-03-29T04:44:26.874Z,4.22
2023-03-29T04:46:54.622Z,4.95
2023-03-29T04:49:40.966Z,4.25
2023-03-29T04:52:13.676Z,4.75
2023-03-29T04:54:41.050Z,4.82
2023-03-29T04:57:18.795Z,4.20
2023-03-29T04:59:59.586Z,5.90
2023-03-29T05:02:58.821Z,4.15
2023-03-29T05:05:27.959Z,5.00
2023-03-29T05:07:57.165Z,6.27
2023-03-29T05:10:31.662Z,8.77
2023-03-29T05:12:58.843Z,6.40
2023-03-29T05:15:27.166Z,7.10
2023-03-29T05:17:54.851Z,11.68
2023-03-29T05:20:22.277Z,8.60
2023-03-29T05:22:50.158Z,9.82
2023-03-29T05:25:37.380Z,8.57
2023-03-29T05:28:04.766Z,11.32
2023-03-29T05:30:32.313Z,9.38
2023-03-29T05:33:14.191Z,8.10
2023-03-29T05:35:41.781Z,8.32
2023-03-29T05:38:09.204Z,9.40
2023-03-29T05:40:37.145Z,7.07
2023-03-29T05:43:27.201Z,6.05
2023-03-29T05:45:56.362Z,4.90
2023-03-29T05:48:25.124Z,5.53
2023-03-29T05:50:55.141Z,7.13
2023-03-29T05:53:24.475Z,5.07
2023-03-29T05:55:52.303Z,4.95
2023-03-29T05:58:22.155Z,5.30
2023-03-29T06:00:51.456Z,5.30
2023-03-29T06:03:46.322Z,6.15
2023-03-29T06:06:16.403Z,5.65
2023-03-29T06:08:44.709Z,4.88
2023-03-29T06:11:24.250Z,5.05
2023-03-29T06:14:18.949Z,4.05
2023-03-29T06:16:55.042Z,3.42
2023-03-29T06:19:22.800Z,4.60
2023-03-29T06:21:52.303Z,7.20
2023-03-29T06:24:25.092Z,13.18
2023-03-29T06:26:59.487Z,10.52
2023-03-29T06:29:26.965Z,4.97
2023-03-29T06:31:56.314Z,5.38
2023-03-29T06:40:13.841Z,4.93
2023-03-29T06:42:44.671Z,5.20
2023-03-29T06:45:37.007Z,4.20
2023-03-29T06:48:08.849Z,5.10
2023-03-29T06:50:36.479Z,3.95
2023-03-29T06:53:11.640Z,6.63
2023-03-29T06:55:41.274Z,6.72
2023-03-29T06:58:31.130Z,7.80
2023-03-29T07:01:05.630Z,4.82
2023-03-29T07:03:54.446Z,5.63
2023-03-29T07:06:28.482Z,5.85
2023-03-29T07:08:59.741Z,2.97
2023-03-29T07:11:41.702Z,6.97
2023-03-29T07:14:19.151Z,3.88
2023-03-29T07:16:48.767Z,3.35
2023-03-29T07:19:36.134Z,3.42
2023-03-29T07:22:29.544Z,2.90
2023-03-29T07:25:00.596Z,3.60
2023-03-29T07:27:28.297Z,3.40
2023-03-29T07:29:56.907Z,3.78
2023-03-29T07:32:24.705Z,3.38
2023-03-29T07:35:15.793Z,3.50
2023-03-29T07:37:44.802Z,3.17
2023-03-29T07:40:24.395Z,2.30
2023-03-29T07:42:58.782Z,2.10
2023-03-29T07:45:32.035Z,3.30
2023-03-29T07:48:19.655Z,2.80
2023-03-29T07:50:58.135Z,2.17
2023-03-29T07:53:34.238Z,2.20
2023-03-29T07:56:04.826Z,2.70
2023-03-29T07:58:55.151Z,2.65
2023-03-29T08:01:22.305Z,1.90
2023-03-29T08:04:08.449Z,1.77
2023-03-29T08:07:01.619Z,5.10
2023-03-29T08:09:49.089Z,3.50
2023-03-29T08:12:16.814Z,1.95
2023-03-29T08:14:44.133Z,2.42
2023-03-29T08:17:17.756Z,2.60
2023-03-29T08:19:51.316Z,2.20
2023-03-29T08:22:22.104Z,2.50
2023-03-29T08:25:09.393Z,2.42
2023-03-29T08:27:42.511Z,3.08
2023-03-29T08:30:12.049Z,2.25
2023-03-29T08:32:39.931Z,2.35
2023-03-29T08:35:09.656Z,2.70
2023-03-29T08:37:43.142Z,3.78
2023-03-29T08:40:21.731Z,3.15
2023-03-29T08:43:11.781Z,3.15
2023-03-29T08:46:38.342Z,5.68
2023-03-29T08:49:27.066Z,4.93
2023-03-29T08:52:05.271Z,3.20
2023-03-29T08:54:42.483Z,4.18
2023-03-29T08:57:21.876Z,11.70
2023-03-29T08:59:57.442Z,5.13
2023-03-29T09:02:28.076Z,4.50
2023-03-29T09:05:17.592Z,2.40
2023-03-29T09:07:54.504Z,3.80
2023-03-29T09:10:37.572Z,2.47
2023-03-29T09:13:25.192Z,2.15
2023-03-29T09:15:54.531Z,4.80
2023-03-29T09:19:01.464Z,4.25
2023-03-29T09:21:48.146Z,4.65
2023-03-29T09:24:54.160Z,4.25
2023-03-29T09:27:31.322Z,3.53
2023-03-29T09:31:01.647Z,3.22
2023-03-29T09:33:44.144Z,3.45
2023-03-29T09:36:25.895Z,2.90
2023-03-29T09:38:55.525Z,3.15
2023-03-29T09:41:41.202Z,3.10
2023-03-29T09:44:27.792Z,3.67
2023-03-29T09:47:09.590Z,2.65
2023-03-29T09:49:43.167Z,3.80
2023-03-29T09:52:16.830Z,3.10
2023-03-29T09:54:52.488Z,5.38
2023-03-29T09:58:00.668Z,3.35
2023-03-29T10:00:31.071Z,3.10
2023-03-29T10:03:00.250Z,2.95
2023-03-29T10:05:37.998Z,4.00
2023-03-29T10:08:20.052Z,3.10
2023-03-29T10:10:47.961Z,2.45
2023-03-29T10:13:43.588Z,2.75
2023-03-29T10:16:23.239Z,2.67
2023-03-29T10:18:51.098Z,2.58
2023-03-29T10:21:23.739Z,2.70
2023-03-29T10:23:59.305Z,3.25
2023-03-29T10:26:32.826Z,5.10
2023-03-29T10:29:06.173Z,2.78
2023-03-29T10:31:34.069Z,3.28
2023-03-29T10:34:05.878Z,8.02
2023-03-29T10:36:33.282Z,3.50
2023-03-29T10:39:05.598Z,2.47
2023-03-29T10:41:35.413Z,3.17
2023-03-29T10:44:03.421Z,2.53
2023-03-29T10:46:33.419Z,2.28
2023-03-29T10:49:06.015Z,1.50
2023-03-29T10:51:34.522Z,1.80
2023-03-29T10:54:03.372Z,1.60
2023-03-29T10:56:45.297Z,1.50
2023-03-29T10:59:33.660Z,1.30
2023-03-29T11:02:15.552Z,1.10
2023-03-29T11:05:06.038Z,1.63
2023-03-29T11:07:48.412Z,1.23
2023-03-29T11:10:40.439Z,1.50
2023-03-29T11:13:10.281Z,1.50
2023-03-29T11:16:02.716Z,1.50
2023-03-29T11:18:38.959Z,1.63
2023-03-29T11:21:12.551Z,2.00
2023-03-29T11:23:48.475Z,1.30
2023-03-29T11:26:29.963Z,1.20
2023-03-29T11:29:01.309Z,1.40
2023-03-29T11:31:53.689Z,1.50
2023-03-29T11:34:47.053Z,1.60
2023-03-29T11:37:31.996Z,1.40
2023-03-29T11:40:36.810Z,1.50
2023-03-29T11:43:11.076Z,1.92
2023-03-29T11:45:46.121Z,1.90
2023-03-29T11:48:21.206Z,1.65
2023-03-29T11:50:56.867Z,1.20
2023-03-29T11:53:37.090Z,2.28
2023-03-29T11:58:42.592Z,2.08
2023-03-29T12:01:22.556Z,2.10
2023-03-29T12:03:55.718Z,2.60
2023-03-29T12:06:32.787Z,1.90
2023-03-29T12:09:30.062Z,3.55
2023-03-29T12:12:29.483Z,1.88
2023-03-29T12:15:11.339Z,2.22
2023-03-29T12:17:44.966Z,2.10
2023-03-29T12:20:28.370Z,2.15
2023-03-29T12:22:59.203Z,2.67
2023-03-29T12:26:02.432Z,4.47
2023-03-29T12:28:54.521Z,3.55
2023-03-29T12:31:39.909Z,3.53
2023-03-29T12:34:12.887Z,2.60
2023-03-29T12:37:13.458Z,2.30
2023-03-29T12:39:46.907Z,2.55
2023-03-29T12:42:33.233Z,4.68
2023-03-29T12:45:29.355Z,3.58
2023-03-29T12:47:57.708Z,2.97
2023-03-29T12:50:35.650Z,3.05
2023-03-29T12:53:07.480Z,6.80
2023-03-29T12:55:49.221Z,17.75
2023-03-29T12:58:30.698Z,6.60
2023-03-29T13:01:07.183Z,3.38
2023-03-29T13:03:48.850Z,23.35
2023-03-29T13:06:46.615Z,7.53
2023-03-29T13:09:36.749Z,6.63
2023-03-29T13:12:08.982Z,20.30
2023-03-29T13:14:42.678Z,3.08
2023-03-29T13:17:21.855Z,17.02
2023-03-29T13:19:56.287Z,37.35
2023-03-29T13:22:38.391Z,5.43
2023-03-29T13:25:18.160Z,5.28
2023-03-29T13:28:14.628Z,3.10
2023-03-29T13:30:48.407Z,3.70
2023-03-29T13:33:52.599Z,4.10
2023-03-29T13:36:44.423Z,3.70
2023-03-29T13:39:29.394Z,6.07
2023-03-29T13:42:08.240Z,3.40
2023-03-29T13:44:45.490Z,9.88
2023-03-29T13:47:29.240Z,4.50
2023-03-29T13:49:59.664Z,32.35
2023-03-29T13:52:34.461Z,59.83
2023-03-29T13:55:05.240Z,18.00
2023-03-29T13:57:56.968Z,19.05
2023-03-29T14:00:36.964Z,7.45
2023-03-29T14:03:09.613Z,5.82
2023-03-29T14:05:44.482Z,7.55
2023-03-29T14:08:26.595Z,4.22
2023-03-29T14:10:55.404Z,4.97
2023-03-29T14:13:25.433Z,4.00
2023-03-29T14:15:59.471Z,4.82
2023-03-29T14:18:32.578Z,4.70
2023-03-29T14:21:02.184Z,4.43
2023-03-29T14:23:33.694Z,5.65
2023-03-29T14:26:19.132Z,4.35
2023-03-29T14:28:49.885Z,4.78
2023-03-29T14:33:45.623Z,10.05
2023-03-29T14:36:17.943Z,4.38
2023-03-29T14:38:51.191Z,4.05
2023-03-29T14:41:19.260Z,3.63
2023-03-29T14:45:06.013Z,3.80
2023-03-29T14:47:34.405Z,3.90
2023-03-29T14:50:02.720Z,6.63
2023-03-29T14:52:31.832Z,6.35
2023-03-29T14:55:02.271Z,13.43
2023-03-29T14:57:36.718Z,52.33
2023-03-29T15:00:27.048Z,60.55
2023-03-29T15:03:02.677Z,61.47
2023-03-29T15:05:37.737Z,17.92
2023-03-29T15:08:12.158Z,6.18
2023-03-29T15:10:42.923Z,7.47
2023-03-29T15:13:19.732Z,4.97
2023-03-29T15:15:51.212Z,4.72
2023-03-29T15:18:22.851Z,5.45
2023-03-29T15:20:51.391Z,5.93
2023-03-29T15:23:22.510Z,3.83
2023-03-29T15:25:58.924Z,6.10
2023-03-29T15:28:28.395Z,5.47
2023-03-29T15:31:08.165Z,4.87
2023-03-29T15:33:39.461Z,6.18
2023-03-29T15:36:09.095Z,6.15
2023-03-29T15:41:14.753Z,6.22
2023-03-29T15:43:43.475Z,11.88
2023-03-29T15:46:13.645Z,13.25
2023-03-29T15:48:42.817Z,10.48
2023-03-29T15:51:14.466Z,14.85
2023-03-29T15:53:42.786Z,13.35
2023-03-29T15:56:16.947Z,11.27
2023-03-29T15:58:47.903Z,10.70
2023-03-29T16:01:37.749Z,8.43
2023-03-29T16:04:15.021Z,8.18
2023-03-29T16:06:44.990Z,6.70
2023-03-29T16:09:13.266Z,13.15
2023-03-29T16:11:42.542Z,13.77
2023-03-29T16:14:23.299Z,31.90
2023-03-29T16:16:52.148Z,9.27
2023-03-29T16:19:20.532Z,14.63
2023-03-29T16:21:48.635Z,10.80
2023-03-29T16:24:22.355Z,13.95
2023-03-29T16:26:51.704Z,9.45
2023-03-29T16:29:20.757Z,11.20
2023-03-29T16:31:49.295Z,7.03
2023-03-29T16:34:19.226Z,8.55
2023-03-29T16:36:47.860Z,8.90
2023-03-29T16:39:16.227Z,9.35
2023-03-29T16:41:45.376Z,10.98
2023-03-29T16:44:16.285Z,7.78
2023-03-29T16:46:43.971Z,6.50
2023-03-29T16:49:18.280Z,9.30
2023-03-29T16:51:47.382Z,11.10
2023-03-29T16:54:17.339Z,12.48
2023-03-29T16:56:45.799Z,9.13
2023-03-29T16:59:14.181Z,15.20
2023-03-29T17:01:42.407Z,15.25
2023-03-29T17:04:10.595Z,13.20
2023-03-29T17:06:38.095Z,13.18
2023-03-29T17:09:06.268Z,9.27
2023-03-29T17:11:34.623Z,8.82
2023-03-29T17:14:02.632Z,8.80
2023-03-29T17:16:30.544Z,7.07
2023-03-29T17:19:00.613Z,10.20
2023-03-29T17:23:57.139Z,23.25
2023-03-29T17:26:25.257Z,24.77
2023-03-29T17:28:53.388Z,21.75
2023-03-29T17:31:21.661Z,23.48
2023-03-29T17:33:52.361Z,19.63
2023-03-29T17:36:24.049Z,29.00
2023-03-29T17:38:52.632Z,26.73
2023-03-29T17:41:21.669Z,14.80
2023-03-29T17:43:51.040Z,10.90
2023-03-29T17:46:22.997Z,19.17
2023-03-29T17:48:52.404Z,10.80
2023-03-29T17:51:20.754Z,28.35
2023-03-29T17:53:48.913Z,28.10
2023-03-29T17:56:16.535Z,31.98
2023-03-29T17:58:44.766Z,25.83
2023-03-29T18:01:14.373Z,31.15
2023-03-29T18:06:10.243Z,16.20
2023-03-29T18:08:38.751Z,12.48
2023-03-29T18:11:11.883Z,9.70
2023-03-29T18:13:40.021Z,12.32
2023-03-29T18:16:08.926Z,11.20
2023-03-29T18:18:37.519Z,25.65
2023-03-29T18:21:06.918Z,12.32
2023-03-29T18:23:35.899Z,12.05
2023-03-29T18:26:04.932Z,18.73
2023-03-29T18:28:34.194Z,19.55
2023-03-29T18:31:01.678Z,12.60
2023-03-29T18:33:30.337Z,7.43
2023-03-29T18:35:57.548Z,11.10
2023-03-29T18:38:25.700Z,12.68
2023-03-29T18:40:53.070Z,10.77
2023-03-29T18:43:21.448Z,10.88
2023-03-29T18:45:49.225Z,11.38
2023-03-29T18:48:16.904Z,12.10
2023-03-29T18:50:47.784Z,11.60
2023-03-29T18:53:15.979Z,7.53
2023-03-29T18:55:44.299Z,7.78
2023-03-29T18:58:16.619Z,7.45
2023-03-29T19:00:44.567Z,9.10
2023-03-29T19:03:14.874Z,11.25
2023-03-29T19:05:43.730Z,9.10
2023-03-29T19:08:11.934Z,12.48
2023-03-29T19:10:40.465Z,11.23
2023-03-29T19:13:09.432Z,10.10
2023-03-29T19:15:37.007Z,8.52
2023-03-29T19:18:07.826Z,8.77
2023-03-29T19:20:37.023Z,9.70
2023-03-29T19:23:05.257Z,9.38
2023-03-29T19:25:33.874Z,9.95
2023-03-29T19:28:04.286Z,11.23
2023-03-29T19:30:31.991Z,11.90
2023-03-29T19:32:59.867Z,13.65
2023-03-29T19:35:27.553Z,14.52
2023-03-29T19:37:55.642Z,12.27
2023-03-29T19:40:24.483Z,13.90
2023-03-29T19:42:52.570Z,16.02
2023-03-29T19:45:21.793Z,15.57
2023-03-29T19:50:26.404Z,15.27
2023-03-29T19:52:54.834Z,14.90
2023-03-29T19:55:22.957Z,12.20
2023-03-29T19:57:55.553Z,11.90
2023-03-29T20:00:25.324Z,12.88
2023-03-29T20:02:54.211Z,14.77
2023-03-29T20:05:24.385Z,16.90
2023-03-29T20:07:53.001Z,20.37
2023-03-29T20:10:21.355Z,14.07
2023-03-29T20:12:54.338Z,15.23
2023-03-29T20:15:27.179Z,13.65
2023-03-29T20:18:02.708Z,13.38
2023-03-29T20:20:31.829Z,13.48
2023-03-29T20:23:04.947Z,13.55
2023-03-29T20:25:35.713Z,12.50
2023-03-29T20:28:04.006Z,12.43
2023-03-29T20:30:31.313Z,13.02
2023-03-29T20:32:58.747Z,13.27
2023-03-29T20:35:26.138Z,13.35
2023-03-29T20:37:53.844Z,13.95
2023-03-29T20:40:21.412Z,13.38
2023-03-29T20:42:49.181Z,14.13
2023-03-29T20:45:19.379Z,15.48
2023-03-29T20:47:57.658Z,14.30
2023-03-29T20:50:28.760Z,14.95
2023-03-29T20:52:56.936Z,13.35
2023-03-29T20:55:24.640Z,12.95
2023-03-29T20:57:59.827Z,13.32
2023-03-29T21:00:29.397Z,12.52
2023-03-29T21:03:01.161Z,11.57
2023-03-29T21:05:30.828Z,12.07
2023-03-29T21:10:26.783Z,11.48
2023-03-29T21:12:54.705Z,10.88
2023-03-29T21:15:22.442Z,11.15
2023-03-29T21:17:50.145Z,11.70
2023-03-29T21:20:17.568Z,11.82
2023-03-29T21:22:44.989Z,11.43
2023-03-29T21:25:15.577Z,11.98
2023-03-29T21:27:43.468Z,11.18
2023-03-29T21:30:11.238Z,9.68
2023-03-29T21:32:38.862Z,9.57
2023-03-29T21:35:06.958Z,10.20
2023-03-29T21:37:34.325Z,9.48
2023-03-29T21:40:05.695Z,10.35
2023-03-29T21:42:34.372Z,9.23
2023-03-29T21:45:02.097Z,9.98
2023-03-29T21:47:31.143Z,9.90
2023-03-29T21:49:58.377Z,8.65
2023-03-29T21:52:26.077Z,9.00
2023-03-29T21:54:53.406Z,8.88
2023-03-29T21:57:21.145Z,8.40
2023-03-29T21:59:48.590Z,9.18
2023-03-29T22:02:17.140Z,9.65
2023-03-29T22:04:44.803Z,8.70
2023-03-29T22:07:12.378Z,10.27
2023-03-29T22:09:41.517Z,9.70
2023-03-29T22:12:10.083Z,9.38
2023-03-29T22:14:37.480Z,9.75
2023-03-29T22:17:08.335Z,9.07
2023-03-29T22:19:38.875Z,9.70
2023-03-29T22:22:13.576Z,10.95
2023-03-29T22:24:42.268Z,10.18
2023-03-29T22:27:11.154Z,11.13
2023-03-29T22:29:38.302Z,11.18
2023-03-29T22:32:05.934Z,11.38
2023-03-29T22:34:33.485Z,10.65
2023-03-29T22:37:00.924Z,11.10
2023-03-29T22:39:28.548Z,10.75
2023-03-29T22:41:56.293Z,11.10
2023-03-29T22:44:23.369Z,11.93
2023-03-29T22:46:51.678Z,15.73
2023-03-29T22:49:18.729Z,14.25
2023-03-29T22:51:46.240Z,11.88
2023-03-29T22:54:13.339Z,10.35
2023-03-29T22:56:40.744Z,8.98
2023-03-29T22:59:07.906Z,9.32
2023-03-29T23:01:35.368Z,12.07
2023-03-29T23:04:02.464Z,10.15
2023-03-29T23:06:30.089Z,9.65
2023-03-29T23:08:57.175Z,10.18
2023-03-29T23:11:24.638Z,9.65
2023-03-29T23:13:52.573Z,9.57
2023-03-29T23:16:22.833Z,9.75
2023-03-29T23:21:17.153Z,26.65
2023-03-29T23:23:44.707Z,14.48
2023-03-29T23:26:12.259Z,15.27
2023-03-29T23:28:41.053Z,11.82
2023-03-29T23:31:13.976Z,11.00
2023-03-29T23:33:42.609Z,9.88
2023-03-29T23:36:13.548Z,9.23
2023-03-29T23:38:42.283Z,9.88
2023-03-29T23:41:12.858Z,9.13
2023-03-29T23:43:43.044Z,9.32
2023-03-29T23:46:15.662Z,10.82
2023-03-29T23:48:47.355Z,9.82
2023-03-29T23:51:18.103Z,9.38
2023-03-29T23:53:45.122Z,9.60
2023-03-29T23:56:12.489Z,9.43
2023-03-29T23:58:39.635Z,9.60
